sensor_id;sensor_type;location;lat;lon;timestamp;P1;durP1;ratioP1;P2;durP2;ratioP2
8650;SDS011;4363;52.346;14.516;2023-12-28T13:46:19;468.55;;;230.13;;
8650;SDS011;4363;52.346;14.516;2023-12-28T13:48:45;373.30;;;163.10;;
8650;SDS011;4363;52.346;14.516;2023-12-28T13:51:12;308.02;;;104.32;;
8650;SDS011;4363;52.346;14.516;2023-12-28T13:53:38;338.00;;;99.00;;
8650;SDS011;4363;52.346;14.516;2023-12-28T13:56:05;316.13;;;74.28;;
8650;SDS011;4363;52.346;14.516;2023-12-28T13:58:33;220.30;;;72.75;;
8650;SDS011;4363;52.346;14.516;2023-12-28T14:00:59;244.57;;;68.20;;
8650;SDS011;4363;52.346;14.516;2023-12-28T14:03:25;197.13;;;46.50;;
8650;SDS011;4363;52.346;14.516;2023-12-28T14:05:51;184.00;;;41.60;;
8650;SDS011;4363;52.346;14.516;2023-12-28T14:08:17;194.60;;;42.78;;
8650;SDS011;4363;52.346;14.516;2023-12-28T14:10:43;277.57;;;63.93;;
8650;SDS011;4363;52.346;14.516;2023-12-28T14:13:09;239.77;;;49.53;;
8650;SDS011;4363;52.346;14.516;2023-12-28T14:15:35;205.23;;;41.77;;
8650;SDS011;4363;52.346;14.516;2023-12-28T14:18:03;228.60;;;45.80;;
8650;SDS011;4363;52.346;14.516;2023-12-28T14:20:30;257.27;;;56.90;;
8650;SDS011;4363;52.346;14.516;2023-12-28T14:22:56;179.77;;;39.10;;
8650;SDS011;4363;52.346;14.516;2023-12-28T14:25:23;197.17;;;41.50;;
8650;SDS011;4363;52.346;14.516;2023-12-28T14:30:39;258.90;;;55.40;;
8650;SDS011;4363;52.346;14.516;2023-12-28T14:33:06;190.20;;;38.07;;
8650;SDS011;4363;52.346;14.516;2023-12-28T14:35:32;203.80;;;41.63;;
8650;SDS011;4363;52.346;14.516;2023-12-28T14:37:58;191.27;;;39.40;;
8650;SDS011;4363;52.346;14.516;2023-12-28T14:40:24;271.90;;;57.83;;
8650;SDS011;4363;52.346;14.516;2023-12-28T14:42:50;179.83;;;36.03;;
8650;SDS011;4363;52.346;14.516;2023-12-28T14:45:16;294.37;;;66.20;;
8650;SDS011;4363;52.346;14.516;2023-12-28T14:47:42;200.67;;;46.17;;
8650;SDS011;4363;52.346;14.516;2023-12-28T14:50:08;303.27;;;72.07;;
8650;SDS011;4363;52.346;14.516;2023-12-28T14:52:34;223.00;;;52.87;;
8650;SDS011;4363;52.346;14.516;2023-12-28T14:55:03;238.23;;;57.40;;
8650;SDS011;4363;52.346;14.516;2023-12-28T14:57:29;236.03;;;59.27;;
8650;SDS011;4363;52.346;14.516;2023-12-28T14:59:55;256.40;;;72.10;;
8650;SDS011;4363;52.346;14.516;2023-12-28T15:02:21;231.53;;;84.77;;
8650;SDS011;4363;52.346;14.516;2023-12-28T15:04:47;193.23;;;89.67;;
8650;SDS011;4363;52.346;14.516;2023-12-28T15:07:13;239.90;;;104.77;;
8650;SDS011;4363;52.346;14.516;2023-12-28T15:09:39;251.03;;;102.90;;
8650;SDS011;4363;52.346;14.516;2023-12-28T15:12:05;287.80;;;128.73;;
8650;SDS011;4363;52.346;14.516;2023-12-28T15:14:31;274.10;;;126.57;;
8650;SDS011;4363;52.346;14.516;2023-12-28T15:16:57;250.60;;;127.67;;
8650;SDS011;4363;52.346;14.516;2023-12-28T15:19:23;240.03;;;79.73;;
8650;SDS011;4363;52.346;14.516;2023-12-28T15:21:51;251.93;;;62.30;;
8650;SDS011;4363;52.346;14.516;2023-12-28T15:24:17;266.37;;;64.00;;
8650;SDS011;4363;52.346;14.516;2023-12-28T15:26:43;193.77;;;43.23;;
8650;SDS011;4363;52.346;14.516;2023-12-28T15:29:10;238.83;;;49.27;;
8650;SDS011;4363;52.346;14.516;2023-12-28T15:31:37;230.07;;;46.80;;
8650;SDS011;4363;52.346;14.516;2023-12-28T15:34:03;206.10;;;41.03;;
8650;SDS011;4363;52.346;14.516;2023-12-28T15:36:29;209.60;;;43.47;;
8650;SDS011;4363;52.346;14.516;2023-12-28T15:38:55;191.33;;;38.77;;
8650;SDS011;4363;52.346;14.516;2023-12-28T15:41:21;272.93;;;62.03;;
8650;SDS011;4363;52.346;14.516;2023-12-28T15:43:47;362.47;;;94.70;;
8650;SDS011;4363;52.346;14.516;2023-12-28T15:46:13;242.47;;;60.97;;
8650;SDS011;4363;52.346;14.516;2023-12-28T15:48:39;268.10;;;67.87;;
8650;SDS011;4363;52.346;14.516;2023-12-28T15:51:05;234.83;;;57.37;;
8650;SDS011;4363;52.346;14.516;2023-12-28T15:53:31;284.57;;;73.00;;
8650;SDS011;4363;52.346;14.516;2023-12-28T15:55:57;329.33;;;91.07;;
8650;SDS011;4363;52.346;14.516;2023-12-28T15:58:23;224.70;;;58.57;;
8650;SDS011;4363;52.346;14.516;2023-12-28T16:00:49;248.73;;;68.30;;
8650;SDS011;4363;52.346;14.516;2023-12-28T16:03:15;298.07;;;95.07;;
8650;SDS011;4363;52.346;14.516;2023-12-28T16:05:41;231.17;;;84.83;;
8650;SDS011;4363;52.346;14.516;2023-12-28T16:08:07;232.97;;;95.90;;
8650;SDS011;4363;52.346;14.516;2023-12-28T16:10:33;253.27;;;104.67;;
8650;SDS011;4363;52.346;14.516;2023-12-28T16:12:59;218.60;;;90.47;;
8650;SDS011;4363;52.346;14.516;2023-12-28T16:15:25;263.33;;;95.30;;
8650;SDS011;4363;52.346;14.516;2023-12-28T16:17:52;255.73;;;102.47;;
8650;SDS011;4363;52.346;14.516;2023-12-28T16:20:22;299.37;;;109.07;;
8650;SDS011;4363;52.346;14.516;2023-12-28T16:22:49;238.80;;;79.13;;
8650;SDS011;4363;52.346;14.516;2023-12-28T16:25:15;237.10;;;73.83;;
8650;SDS011;4363;52.346;14.516;2023-12-28T16:27:41;206.33;;;43.57;;
8650;SDS011;4363;52.346;14.516;2023-12-28T16:30:07;254.90;;;69.50;;
8650;SDS011;4363;52.346;14.516;2023-12-28T16:32:33;221.13;;;59.53;;
8650;SDS011;4363;52.346;14.516;2023-12-28T16:34:59;256.07;;;60.00;;
8650;SDS011;4363;52.346;14.516;2023-12-28T16:37:25;226.83;;;44.10;;
8650;SDS011;4363;52.346;14.516;2023-12-28T16:39:51;204.43;;;41.50;;
8650;SDS011;4363;52.346;14.516;2023-12-28T16:42:17;246.10;;;48.03;;
8650;SDS011;4363;52.346;14.516;2023-12-28T16:44:43;205.90;;;40.63;;
8650;SDS011;4363;52.346;14.516;2023-12-28T16:47:09;280.60;;;55.43;;
8650;SDS011;4363;52.346;14.516;2023-12-28T16:49:36;245.57;;;48.30;;
8650;SDS011;4363;52.346;14.516;2023-12-28T16:52:02;208.87;;;40.03;;
8650;SDS011;4363;52.346;14.516;2023-12-28T16:54:28;305.53;;;61.33;;
8650;SDS011;4363;52.346;14.516;2023-12-28T16:56:54;191.53;;;35.90;;
8650;SDS011;4363;52.346;14.516;2023-12-28T16:59:20;211.13;;;40.03;;
8650;SDS011;4363;52.346;14.516;2023-12-28T17:01:46;247.63;;;50.80;;
8650;SDS011;4363;52.346;14.516;2023-12-28T17:04:14;230.13;;;45.43;;
8650;SDS011;4363;52.346;14.516;2023-12-28T17:06:40;207.00;;;50.80;;
8650;SDS011;4363;52.346;14.516;2023-12-28T17:09:06;286.33;;;86.80;;
8650;SDS011;4363;52.346;14.516;2023-12-28T17:11:34;211.03;;;64.27;;
8650;SDS011;4363;52.346;14.516;2023-12-28T17:14:00;259.47;;;86.77;;
8650;SDS011;4363;52.346;14.516;2023-12-28T17:16:26;305.60;;;118.30;;
8650;SDS011;4363;52.346;14.516;2023-12-28T17:18:53;237.90;;;85.90;;
8650;SDS011;4363;52.346;14.516;2023-12-28T17:21:20;301.53;;;120.97;;
8650;SDS011;4363;52.346;14.516;2023-12-28T17:23:50;308.70;;;135.03;;
8650;SDS011;4363;52.346;14.516;2023-12-28T17:29:05;303.50;;;105.83;;
8650;SDS011;4363;52.346;14.516;2023-12-28T17:31:32;236.90;;;51.80;;
8650;SDS011;4363;52.346;14.516;2023-12-28T17:33:58;224.10;;;48.40;;
8650;SDS011;4363;52.346;14.516;2023-12-28T17:36:24;227.20;;;50.27;;
8650;SDS011;4363;52.346;14.516;2023-12-28T17:38:52;214.60;;;50.57;;
8650;SDS011;4363;52.346;14.516;2023-12-28T17:41:20;255.03;;;88.70;;
8650;SDS011;4363;52.346;14.516;2023-12-28T17:43:54;329.77;;;132.07;;
8650;SDS011;4363;52.346;14.516;2023-12-28T17:48:58;298.80;;;125.30;;
8650;SDS011;4363;52.346;14.516;2023-12-28T17:51:25;232.43;;;70.07;;
8650;SDS011;4363;52.346;14.516;2023-12-28T17:53:51;245.80;;;81.20;;
8650;SDS011;4363;52.346;14.516;2023-12-28T17:56:18;242.43;;;91.87;;
8650;SDS011;4363;52.346;14.516;2023-12-28T17:58:44;232.73;;;66.57;;
8650;SDS011;4363;52.346;14.516;2023-12-28T18:01:10;240.63;;;61.20;;
8650;SDS011;4363;52.346;14.516;2023-12-28T18:03:36;290.40;;;70.53;;
8650;SDS011;4363;52.346;14.516;2023-12-28T18:06:03;215.13;;;48.97;;
8650;SDS011;4363;52.346;14.516;2023-12-28T18:08:29;224.97;;;51.40;;
8650;SDS011;4363;52.346;14.516;2023-12-28T18:10:56;251.63;;;59.03;;
8650;SDS011;4363;52.346;14.516;2023-12-28T18:13:22;258.50;;;64.73;;
8650;SDS011;4363;52.346;14.516;2023-12-28T18:15:48;232.30;;;55.73;;
8650;SDS011;4363;52.346;14.516;2023-12-28T18:18:14;251.37;;;56.53;;
8650;SDS011;4363;52.346;14.516;2023-12-28T18:20:41;202.07;;;34.83;;
8650;SDS011;4363;52.346;14.516;2023-12-28T18:23:07;230.47;;;39.07;;
8650;SDS011;4363;52.346;14.516;2023-12-28T18:25:34;184.77;;;32.77;;
8650;SDS011;4363;52.346;14.516;2023-12-28T18:28:00;181.37;;;31.73;;
8650;SDS011;4363;52.346;14.516;2023-12-28T18:30:26;248.73;;;43.90;;
8650;SDS011;4363;52.346;14.516;2023-12-28T18:32:52;235.73;;;40.53;;
8650;SDS011;4363;52.346;14.516;2023-12-28T18:35:20;180.13;;;30.47;;
8650;SDS011;4363;52.346;14.516;2023-12-28T18:37:46;196.40;;;33.40;;
8650;SDS011;4363;52.346;14.516;2023-12-28T18:40:12;180.60;;;31.03;;
8650;SDS011;4363;52.346;14.516;2023-12-28T18:42:38;191.43;;;34.00;;
8650;SDS011;4363;52.346;14.516;2023-12-28T18:45:04;203.27;;;36.50;;
8650;SDS011;4363;52.346;14.516;2023-12-28T18:47:31;240.97;;;41.90;;
8650;SDS011;4363;52.346;14.516;2023-12-28T18:49:57;145.93;;;25.73;;
8650;SDS011;4363;52.346;14.516;2023-12-28T18:52:23;185.70;;;31.47;;
8650;SDS011;4363;52.346;14.516;2023-12-28T18:54:49;170.63;;;28.87;;
8650;SDS011;4363;52.346;14.516;2023-12-28T18:57:15;197.43;;;33.37;;
8650;SDS011;4363;52.346;14.516;2023-12-28T18:59:41;197.53;;;35.07;;
8650;SDS011;4363;52.346;14.516;2023-12-28T19:02:07;173.43;;;30.37;;
8650;SDS011;4363;52.346;14.516;2023-12-28T19:04:33;200.17;;;34.83;;
8650;SDS011;4363;52.346;14.516;2023-12-28T19:06:59;158.33;;;27.53;;
8650;SDS011;4363;52.346;14.516;2023-12-28T19:09:26;244.50;;;43.03;;
8650;SDS011;4363;52.346;14.516;2023-12-28T19:11:52;178.13;;;31.33;;
8650;SDS011;4363;52.346;14.516;2023-12-28T19:14:18;168.77;;;29.80;;
8650;SDS011;4363;52.346;14.516;2023-12-28T19:16:44;192.50;;;33.53;;
8650;SDS011;4363;52.346;14.516;2023-12-28T19:19:10;214.93;;;38.43;;
8650;SDS011;4363;52.346;14.516;2023-12-28T19:21:36;194.27;;;35.60;;
8650;SDS011;4363;52.346;14.516;2023-12-28T19:24:01;183.37;;;31.30;;
8650;SDS011;4363;52.346;14.516;2023-12-28T19:26:27;206.00;;;35.47;;
8650;SDS011;4363;52.346;14.516;2023-12-28T19:28:53;220.37;;;37.83;;
8650;SDS011;4363;52.346;14.516;2023-12-28T19:31:19;187.30;;;32.10;;
8650;SDS011;4363;52.346;14.516;2023-12-28T19:33:45;236.10;;;41.60;;
8650;SDS011;4363;52.346;14.516;2023-12-28T19:36:11;204.50;;;34.83;;
8650;SDS011;4363;52.346;14.516;2023-12-28T19:38:37;205.93;;;35.33;;
8650;SDS011;4363;52.346;14.516;2023-12-28T19:41:03;189.50;;;32.70;;
8650;SDS011;4363;52.346;14.516;2023-12-28T19:43:29;229.27;;;41.37;;
8650;SDS011;4363;52.346;14.516;2023-12-28T19:45:55;208.53;;;36.57;;
8650;SDS011;4363;52.346;14.516;2023-12-28T19:48:21;197.57;;;33.77;;
8650;SDS011;4363;52.346;14.516;2023-12-28T19:50:47;186.20;;;32.37;;
8650;SDS011;4363;52.346;14.516;2023-12-28T19:53:14;191.07;;;31.57;;
8650;SDS011;4363;52.346;14.516;2023-12-28T19:55:43;228.73;;;39.57;;
8650;SDS011;4363;52.346;14.516;2023-12-28T20:00:42;220.60;;;32.83;;
8650;SDS011;4363;52.346;14.516;2023-12-28T20:03:08;120.30;;;17.17;;
8650;SDS011;4363;52.346;14.516;2023-12-28T20:05:34;255.23;;;39.97;;
8650;SDS011;4363;52.346;14.516;2023-12-28T20:08:00;158.60;;;23.00;;
8650;SDS011;4363;52.346;14.516;2023-12-28T20:10:27;186.67;;;28.30;;
8650;SDS011;4363;52.346;14.516;2023-12-28T20:12:56;160.87;;;25.27;;
8650;SDS011;4363;52.346;14.516;2023-12-28T20:15:23;212.37;;;32.80;;
8650;SDS011;4363;52.346;14.516;2023-12-28T20:17:49;220.20;;;32.33;;
8650;SDS011;4363;52.346;14.516;2023-12-28T20:20:15;184.20;;;26.70;;
8650;SDS011;4363;52.346;14.516;2023-12-28T20:22:41;232.90;;;33.93;;
8650;SDS011;4363;52.346;14.516;2023-12-28T20:25:07;224.30;;;32.83;;
8650;SDS011;4363;52.346;14.516;2023-12-28T20:30:38;253.07;;;37.77;;
8650;SDS011;4363;52.346;14.516;2023-12-28T20:33:04;172.60;;;24.87;;
8650;SDS011;4363;52.346;14.516;2023-12-28T20:35:30;183.37;;;26.40;;
8650;SDS011;4363;52.346;14.516;2023-12-28T20:37:56;169.60;;;24.67;;
8650;SDS011;4363;52.346;14.516;2023-12-28T20:40:22;215.57;;;31.30;;
8650;SDS011;4363;52.346;14.516;2023-12-28T20:42:49;159.07;;;23.53;;
8650;SDS011;4363;52.346;14.516;2023-12-28T20:45:15;219.77;;;33.00;;
8650;SDS011;4363;52.346;14.516;2023-12-28T20:47:42;221.60;;;32.93;;
8650;SDS011;4363;52.346;14.516;2023-12-28T20:50:08;173.13;;;24.97;;
8650;SDS011;4363;52.346;14.516;2023-12-28T20:52:35;193.07;;;28.03;;
8650;SDS011;4363;52.346;14.516;2023-12-28T20:55:01;165.43;;;23.93;;
8650;SDS011;4363;52.346;14.516;2023-12-28T20:57:27;157.80;;;22.67;;
8650;SDS011;4363;52.346;14.516;2023-12-28T20:59:56;167.70;;;24.03;;
8650;SDS011;4363;52.346;14.516;2023-12-28T21:02:23;226.00;;;32.50;;
8650;SDS011;4363;52.346;14.516;2023-12-28T21:04:49;215.03;;;31.27;;
8650;SDS011;4363;52.346;14.516;2023-12-28T21:07:15;171.57;;;24.40;;
8650;SDS011;4363;52.346;14.516;2023-12-28T21:09:41;211.27;;;31.40;;
8650;SDS011;4363;52.346;14.516;2023-12-28T21:12:08;179.17;;;25.30;;
8650;SDS011;4363;52.346;14.516;2023-12-28T21:14:35;192.93;;;27.33;;
8650;SDS011;4363;52.346;14.516;2023-12-28T21:17:06;177.03;;;25.23;;
8650;SDS011;4363;52.346;14.516;2023-12-28T21:19:32;169.73;;;24.77;;
8650;SDS011;4363;52.346;14.516;2023-12-28T21:21:59;184.57;;;26.23;;
8650;SDS011;4363;52.346;14.516;2023-12-28T21:24:25;266.80;;;40.20;;
8650;SDS011;4363;52.346;14.516;2023-12-28T21:26:51;221.17;;;33.77;;
8650;SDS011;4363;52.346;14.516;2023-12-28T21:29:17;263.77;;;40.13;;
8650;SDS011;4363;52.346;14.516;2023-12-28T21:31:43;205.23;;;30.33;;
8650;SDS011;4363;52.346;14.516;2023-12-28T21:34:10;304.97;;;46.07;;
8650;SDS011;4363;52.346;14.516;2023-12-28T21:36:35;196.70;;;28.47;;
8650;SDS011;4363;52.346;14.516;2023-12-28T21:39:02;179.70;;;25.87;;
8650;SDS011;4363;52.346;14.516;2023-12-28T21:41:29;186.07;;;27.13;;
8650;SDS011;4363;52.346;14.516;2023-12-28T21:43:55;225.10;;;33.20;;
8650;SDS011;4363;52.346;14.516;2023-12-28T21:46:21;203.80;;;29.27;;
8650;SDS011;4363;52.346;14.516;2023-12-28T21:48:47;228.67;;;34.73;;
8650;SDS011;4363;52.346;14.516;2023-12-28T21:51:13;170.07;;;24.67;;
8650;SDS011;4363;52.346;14.516;2023-12-28T21:53:39;208.60;;;30.07;;
8650;SDS011;4363;52.346;14.516;2023-12-28T21:56:05;188.37;;;26.90;;
8650;SDS011;4363;52.346;14.516;2023-12-28T21:58:31;190.40;;;27.23;;
8650;SDS011;4363;52.346;14.516;2023-12-28T22:00:57;179.70;;;26.67;;
8650;SDS011;4363;52.346;14.516;2023-12-28T22:03:23;161.47;;;23.90;;
8650;SDS011;4363;52.346;14.516;2023-12-28T22:05:49;191.60;;;28.40;;
8650;SDS011;4363;52.346;14.516;2023-12-28T22:08:15;191.63;;;28.63;;
8650;SDS011;4363;52.346;14.516;2023-12-28T22:10:41;233.23;;;33.83;;
8650;SDS011;4363;52.346;14.516;2023-12-28T22:13:07;198.53;;;28.57;;
8650;SDS011;4363;52.346;14.516;2023-12-28T22:15:34;161.53;;;23.83;;
8650;SDS011;4363;52.346;14.516;2023-12-28T22:18:00;150.30;;;22.20;;
8650;SDS011;4363;52.346;14.516;2023-12-28T22:20:26;148.33;;;21.87;;
8650;SDS011;4363;52.346;14.516;2023-12-28T22:22:52;183.80;;;27.37;;
8650;SDS011;4363;52.346;14.516;2023-12-28T22:25:18;184.57;;;27.87;;
8650;SDS011;4363;52.346;14.516;2023-12-28T22:27:44;229.27;;;34.10;;
8650;SDS011;4363;52.346;14.516;2023-12-28T22:30:10;168.63;;;24.50;;
8650;SDS011;4363;52.346;14.516;2023-12-28T22:32:39;178.47;;;26.40;;
8650;SDS011;4363;52.346;14.516;2023-12-28T22:35:05;173.50;;;25.80;;
8650;SDS011;4363;52.346;14.516;2023-12-28T22:37:31;174.10;;;25.40;;
8650;SDS011;4363;52.346;14.516;2023-12-28T22:39:57;233.93;;;34.40;;
8650;SDS011;4363;52.346;14.516;2023-12-28T22:42:26;254.70;;;39.20;;
8650;SDS011;4363;52.346;14.516;2023-12-28T22:44:52;225.47;;;32.63;;
8650;SDS011;4363;52.346;14.516;2023-12-28T22:47:18;213.40;;;31.80;;
8650;SDS011;4363;52.346;14.516;2023-12-28T22:49:48;243.53;;;36.87;;
8650;SDS011;4363;52.346;14.516;2023-12-28T22:52:14;207.40;;;30.70;;
8650;SDS011;4363;52.346;14.516;2023-12-28T22:54:41;180.17;;;26.57;;
8650;SDS011;4363;52.346;14.516;2023-12-28T22:57:07;187.20;;;27.17;;
8650;SDS011;4363;52.346;14.516;2023-12-28T22:59:33;160.40;;;24.20;;
8650;SDS011;4363;52.346;14.516;2023-12-28T23:01:59;228.83;;;33.47;;
8650;SDS011;4363;52.346;14.516;2023-12-28T23:04:25;194.90;;;28.20;;
8650;SDS011;4363;52.346;14.516;2023-12-28T23:06:51;170.13;;;25.17;;
8650;SDS011;4363;52.346;14.516;2023-12-28T23:09:17;254.13;;;38.23;;
8650;SDS011;4363;52.346;14.516;2023-12-28T23:11:43;204.63;;;29.57;;
8650;SDS011;4363;52.346;14.516;2023-12-28T23:14:09;200.30;;;29.83;;
8650;SDS011;4363;52.346;14.516;2023-12-28T23:16:35;169.93;;;24.50;;
8650;SDS011;4363;52.346;14.516;2023-12-28T23:19:01;188.00;;;27.67;;
8650;SDS011;4363;52.346;14.516;2023-12-28T23:21:28;223.40;;;32.03;;
8650;SDS011;4363;52.346;14.516;2023-12-28T23:23:54;250.57;;;39.67;;
8650;SDS011;4363;52.346;14.516;2023-12-28T23:26:21;216.50;;;31.27;;
8650;SDS011;4363;52.346;14.516;2023-12-28T23:28:47;176.80;;;26.20;;
8650;SDS011;4363;52.346;14.516;2023-12-28T23:31:13;214.07;;;30.53;;
8650;SDS011;4363;52.346;14.516;2023-12-28T23:33:39;220.00;;;33.03;;
8650;SDS011;4363;52.346;14.516;2023-12-28T23:36:05;224.93;;;33.30;;
8650;SDS011;4363;52.346;14.516;2023-12-28T23:38:34;194.73;;;27.97;;
8650;SDS011;4363;52.346;14.516;2023-12-28T23:41:00;247.57;;;36.87;;
8650;SDS011;4363;52.346;14.516;2023-12-28T23:43:26;224.63;;;33.50;;
8650;SDS011;4363;52.346;14.516;2023-12-28T23:45:52;205.90;;;31.80;;
8650;SDS011;4363;52.346;14.516;2023-12-28T23:48:19;186.87;;;26.30;;
8650;SDS011;4363;52.346;14.516;2023-12-28T23:50:45;160.07;;;23.07;;
8650;SDS011;4363;52.346;14.516;2023-12-28T23:53:11;205.40;;;30.03;;
8650;SDS011;4363;52.346;14.516;2023-12-28T23:55:37;198.37;;;28.80;;
8650;SDS011;4363;52.346;14.516;2023-12-28T23:58:03;204.73;;;29.70;;
